sensor_id;sensor_type;location;lat;lon;timestamp;temperature;humidity
38265;DHT22;24062;47.480;8.768;2023-07-24T00:01:07;28.80;55.30
38265;DHT22;24062;47.480;8.768;2023-07-24T00:03:34;28.80;55.30
38265;DHT22;24062;47.480;8.768;2023-07-24T00:06:01;28.80;55.30
38265;DHT22;24062;47.480;8.768;2023-07-24T00:08:28;28.80;55.30
38265;DHT22;24062;47.480;8.768;2023-07-24T00:10:55;28.80;55.30
38265;DHT22;24062;47.480;8.768;2023-07-24T00:13:24;28.80;55.30
38265;DHT22;24062;47.480;8.768;2023-07-24T00:15:51;28.80;55.40
38265;DHT22;24062;47.480;8.768;2023-07-24T00:18:18;28.70;55.30
38265;DHT22;24062;47.480;8.768;2023-07-24T00:20:45;28.80;55.40
38265;DHT22;24062;47.480;8.768;2023-07-24T00:23:12;28.70;55.30
38265;DHT22;24062;47.480;8.768;2023-07-24T00:25:38;28.70;55.30
38265;DHT22;24062;47.480;8.768;2023-07-24T00:28:05;28.70;55.30
38265;DHT22;24062;47.480;8.768;2023-07-24T00:30:34;28.70;55.40
38265;DHT22;24062;47.480;8.768;2023-07-24T00:33:00;28.70;55.40
38265;DHT22;24062;47.480;8.768;2023-07-24T00:35:27;28.60;55.30
38265;DHT22;24062;47.480;8.768;2023-07-24T00:37:54;28.60;55.40
38265;DHT22;24062;47.480;8.768;2023-07-24T00:40:21;28.60;55.40
38265;DHT22;24062;47.480;8.768;2023-07-24T00:42:48;28.70;55.50
38265;DHT22;24062;47.480;8.768;2023-07-24T00:45:15;28.60;55.40
38265;DHT22;24062;47.480;8.768;2023-07-24T00:47:44;28.60;55.50
38265;DHT22;24062;47.480;8.768;2023-07-24T00:50:11;28.60;55.40
38265;DHT22;24062;47.480;8.768;2023-07-24T00:52:39;28.60;55.50
38265;DHT22;24062;47.480;8.768;2023-07-24T00:55:07;28.60;55.50
38265;DHT22;24062;47.480;8.768;2023-07-24T00:57:34;28.60;55.50
38265;DHT22;24062;47.480;8.768;2023-07-24T01:00:01;28.50;55.50
38265;DHT22;24062;47.480;8.768;2023-07-24T01:02:29;28.50;55.50
38265;DHT22;24062;47.480;8.768;2023-07-24T01:04:58;28.50;55.50
38265;DHT22;24062;47.480;8.768;2023-07-24T01:07:25;28.50;55.50
38265;DHT22;24062;47.480;8.768;2023-07-24T01:09:52;28.50;55.50
38265;DHT22;24062;47.480;8.768;2023-07-24T01:12:23;28.40;55.50
38265;DHT22;24062;47.480;8.768;2023-07-24T01:14:55;28.40;55.50
38265;DHT22;24062;47.480;8.768;2023-07-24T01:17:24;28.40;55.50
38265;DHT22;24062;47.480;8.768;2023-07-24T01:19:55;28.40;55.50
38265;DHT22;24062;47.480;8.768;2023-07-24T01:22:34;28.40;55.50
38265;DHT22;24062;47.480;8.768;2023-07-24T01:25:10;28.40;55.50
38265;DHT22;24062;47.480;8.768;2023-07-24T01:27:42;28.40;55.60
38265;DHT22;24062;47.480;8.768;2023-07-24T01:30:10;28.40;55.60
38265;DHT22;24062;47.480;8.768;2023-07-24T01:32:38;28.40;55.60
38265;DHT22;24062;47.480;8.768;2023-07-24T01:35:05;28.40;55.60
38265;DHT22;24062;47.480;8.768;2023-07-24T01:37:34;28.30;55.60
38265;DHT22;24062;47.480;8.768;2023-07-24T01:40:02;28.40;55.60
38265;DHT22;24062;47.480;8.768;2023-07-24T01:42:30;28.30;55.60
38265;DHT22;24062;47.480;8.768;2023-07-24T01:44:58;28.30;55.60
38265;DHT22;24062;47.480;8.768;2023-07-24T01:47:25;28.30;55.60
38265;DHT22;24062;47.480;8.768;2023-07-24T01:49:52;28.20;55.60
38265;DHT22;24062;47.480;8.768;2023-07-24T01:52:19;28.20;55.60
38265;DHT22;24062;47.480;8.768;2023-07-24T01:54:46;28.20;55.60
38265;DHT22;24062;47.480;8.768;2023-07-24T01:57:13;28.30;55.70
38265;DHT22;24062;47.480;8.768;2023-07-24T01:59:40;28.30;55.70
38265;DHT22;24062;47.480;8.768;2023-07-24T02:02:08;28.20;55.70
38265;DHT22;24062;47.480;8.768;2023-07-24T02:04:35;28.20;55.60
38265;DHT22;24062;47.480;8.768;2023-07-24T02:07:26;28.20;55.70
38265;DHT22;24062;47.480;8.768;2023-07-24T02:10:54;28.20;55.70
38265;DHT22;24062;47.480;8.768;2023-07-24T02:13:44;28.20;55.70
38265;DHT22;24062;47.480;8.768;2023-07-24T02:16:11;28.10;55.70
38265;DHT22;24062;47.480;8.768;2023-07-24T02:18:41;28.10;55.70
38265;DHT22;24062;47.480;8.768;2023-07-24T02:21:09;28.10;55.70
38265;DHT22;24062;47.480;8.768;2023-07-24T02:23:36;28.10;55.70
38265;DHT22;24062;47.480;8.768;2023-07-24T02:26:03;28.10;55.70
38265;DHT22;24062;47.480;8.768;2023-07-24T02:28:30;28.10;55.70
38265;DHT22;24062;47.480;8.768;2023-07-24T02:30:56;28.10;55.80
38265;DHT22;24062;47.480;8.768;2023-07-24T02:33:24;28.10;55.70
38265;DHT22;24062;47.480;8.768;2023-07-24T02:35:53;28.10;55.80
38265;DHT22;24062;47.480;8.768;2023-07-24T02:38:19;28.10;55.80
38265;DHT22;24062;47.480;8.768;2023-07-24T02:40:46;28.00;55.70
38265;DHT22;24062;47.480;8.768;2023-07-24T02:43:13;28.00;55.80
38265;DHT22;24062;47.480;8.768;2023-07-24T02:45:40;28.00;55.70
38265;DHT22;24062;47.480;8.768;2023-07-24T02:48:07;28.00;55.80
38265;DHT22;24062;47.480;8.768;2023-07-24T02:50:34;28.00;55.80
38265;DHT22;24062;47.480;8.768;2023-07-24T02:53:03;28.00;56.40
38265;DHT22;24062;47.480;8.768;2023-07-24T02:55:30;28.00;55.80
38265;DHT22;24062;47.480;8.768;2023-07-24T02:57:57;28.00;55.80
38265;DHT22;24062;47.480;8.768;2023-07-24T03:00:24;28.00;55.90
38265;DHT22;24062;47.480;8.768;2023-07-24T03:02:51;28.00;55.90
38265;DHT22;24062;47.480;8.768;2023-07-24T03:05:18;27.90;55.80
38265;DHT22;24062;47.480;8.768;2023-07-24T03:07:45;27.90;55.90
38265;DHT22;24062;47.480;8.768;2023-07-24T03:10:14;27.90;55.90
38265;DHT22;24062;47.480;8.768;2023-07-24T03:12:40;27.90;55.90
38265;DHT22;24062;47.480;8.768;2023-07-24T03:15:08;27.90;55.90
38265;DHT22;24062;47.480;8.768;2023-07-24T03:17:35;27.90;55.90
38265;DHT22;24062;47.480;8.768;2023-07-24T03:20:08;27.90;55.90
38265;DHT22;24062;47.480;8.768;2023-07-24T03:22:36;27.90;55.90
38265;DHT22;24062;47.480;8.768;2023-07-24T03:25:03;27.90;55.90
38265;DHT22;24062;47.480;8.768;2023-07-24T03:27:31;27.80;55.90
38265;DHT22;24062;47.480;8.768;2023-07-24T03:29:58;27.80;55.90
38265;DHT22;24062;47.480;8.768;2023-07-24T03:32:25;27.80;55.90
38265;DHT22;24062;47.480;8.768;2023-07-24T03:34:52;27.80;55.90
38265;DHT22;24062;47.480;8.768;2023-07-24T03:37:19;27.80;55.90
38265;DHT22;24062;47.480;8.768;2023-07-24T03:39:46;27.80;55.90
38265;DHT22;24062;47.480;8.768;2023-07-24T03:42:24;27.80;56.00
38265;DHT22;24062;47.480;8.768;2023-07-24T03:44:53;27.80;55.90
38265;DHT22;24062;47.480;8.768;2023-07-24T03:47:20;27.80;56.00
38265;DHT22;24062;47.480;8.768;2023-07-24T03:49:47;27.70;55.90
38265;DHT22;24062;47.480;8.768;2023-07-24T03:52:14;27.70;55.90
38265;DHT22;24062;47.480;8.768;2023-07-24T03:54:41;27.70;55.90
38265;DHT22;24062;47.480;8.768;2023-07-24T03:57:08;27.70;56.00
38265;DHT22;24062;47.480;8.768;2023-07-24T03:59:35;27.70;56.00
38265;DHT22;24062;47.480;8.768;2023-07-24T04:02:04;27.70;56.00
38265;DHT22;24062;47.480;8.768;2023-07-24T04:04:31;27.70;55.90
38265;DHT22;24062;47.480;8.768;2023-07-24T04:06:58;27.70;56.00
38265;DHT22;24062;47.480;8.768;2023-07-24T04:09:26;27.70;56.00
38265;DHT22;24062;47.480;8.768;2023-07-24T04:11:52;27.70;56.00
38265;DHT22;24062;47.480;8.768;2023-07-24T04:14:19;27.70;56.00
38265;DHT22;24062;47.480;8.768;2023-07-24T04:16:46;27.70;56.00
38265;DHT22;24062;47.480;8.768;2023-07-24T04:19:15;27.60;56.00
38265;DHT22;24062;47.480;8.768;2023-07-24T04:21:41;27.60;56.00
38265;DHT22;24062;47.480;8.768;2023-07-24T04:24:08;27.60;56.00
38265;DHT22;24062;47.480;8.768;2023-07-24T04:26:35;27.60;56.00
38265;DHT22;24062;47.480;8.768;2023-07-24T04:29:02;27.60;56.00
38265;DHT22;24062;47.480;8.768;2023-07-24T04:31:29;27.60;56.00
38265;DHT22;24062;47.480;8.768;2023-07-24T04:33:56;27.60;56.00
38265;DHT22;24062;47.480;8.768;2023-07-24T04:36:24;27.60;56.00
38265;DHT22;24062;47.480;8.768;2023-07-24T04:38:51;27.60;56.00
38265;DHT22;24062;47.480;8.768;2023-07-24T04:41:18;27.60;56.00
38265;DHT22;24062;47.480;8.768;2023-07-24T04:43:45;27.60;56.10
38265;DHT22;24062;47.480;8.768;2023-07-24T04:46:12;27.50;56.00
38265;DHT22;24062;47.480;8.768;2023-07-24T04:48:39;27.60;56.10
38265;DHT22;24062;47.480;8.768;2023-07-24T04:51:06;27.50;56.10
38265;DHT22;24062;47.480;8.768;2023-07-24T04:53:34;27.50;56.10
38265;DHT22;24062;47.480;8.768;2023-07-24T04:56:01;27.50;56.10
38265;DHT22;24062;47.480;8.768;2023-07-24T04:58:28;27.50;56.10
38265;DHT22;24062;47.480;8.768;2023-07-24T05:00:54;27.50;56.20
38265;DHT22;24062;47.480;8.768;2023-07-24T05:03:21;27.50;56.20
38265;DHT22;24062;47.480;8.768;2023-07-24T05:05:53;27.50;56.20
38265;DHT22;24062;47.480;8.768;2023-07-24T05:08:20;27.50;56.20
38265;DHT22;24062;47.480;8.768;2023-07-24T05:10:53;27.50;56.20
38265;DHT22;24062;47.480;8.768;2023-07-24T05:13:21;27.50;56.20
38265;DHT22;24062;47.480;8.768;2023-07-24T05:15:48;27.50;56.20
38265;DHT22;24062;47.480;8.768;2023-07-24T05:18:15;27.50;56.20
38265;DHT22;24062;47.480;8.768;2023-07-24T05:20:44;27.40;56.20
38265;DHT22;24062;47.480;8.768;2023-07-24T05:23:12;27.40;56.20
38265;DHT22;24062;47.480;8.768;2023-07-24T05:25:39;27.40;56.20
38265;DHT22;24062;47.480;8.768;2023-07-24T05:28:07;27.40;56.20
38265;DHT22;24062;47.480;8.768;2023-07-24T05:30:34;27.40;56.20
38265;DHT22;24062;47.480;8.768;2023-07-24T05:33:01;27.40;56.20
38265;DHT22;24062;47.480;8.768;2023-07-24T05:35:28;27.30;56.20
38265;DHT22;24062;47.480;8.768;2023-07-24T05:37:55;27.30;56.20
38265;DHT22;24062;47.480;8.768;2023-07-24T05:40:22;27.30;56.20
38265;DHT22;24062;47.480;8.768;2023-07-24T05:42:48;27.30;56.20
38265;DHT22;24062;47.480;8.768;2023-07-24T05:45:17;27.30;56.20
38265;DHT22;24062;47.480;8.768;2023-07-24T05:47:44;27.30;56.20
38265;DHT22;24062;47.480;8.768;2023-07-24T05:50:11;27.30;56.20
38265;DHT22;24062;47.480;8.768;2023-07-24T05:52:39;27.30;56.20
38265;DHT22;24062;47.480;8.768;2023-07-24T05:55:07;27.30;56.90
38265;DHT22;24062;47.480;8.768;2023-07-24T05:57:34;27.30;56.20
38265;DHT22;24062;47.480;8.768;2023-07-24T06:00:01;27.30;56.20
38265;DHT22;24062;47.480;8.768;2023-07-24T06:02:29;27.30;56.20
38265;DHT22;24062;47.480;8.768;2023-07-24T06:04:56;27.30;56.20
38265;DHT22;24062;47.480;8.768;2023-07-24T06:07:23;27.30;56.20
38265;DHT22;24062;47.480;8.768;2023-07-24T06:09:49;27.30;56.20
38265;DHT22;24062;47.480;8.768;2023-07-24T06:12:16;27.30;56.20
38265;DHT22;24062;47.480;8.768;2023-07-24T06:14:43;27.30;56.20
38265;DHT22;24062;47.480;8.768;2023-07-24T06:17:10;27.30;56.10
38265;DHT22;24062;47.480;8.768;2023-07-24T06:19:39;27.40;56.10
38265;DHT22;24062;47.480;8.768;2023-07-24T06:22:06;27.40;56.00
38265;DHT22;24062;47.480;8.768;2023-07-24T06:24:33;27.50;55.90
38265;DHT22;24062;47.480;8.768;2023-07-24T06:27:00;27.50;55.80
38265;DHT22;24062;47.480;8.768;2023-07-24T06:29:27;27.60;55.70
38265;DHT22;24062;47.480;8.768;2023-07-24T06:31:54;27.60;55.60
38265;DHT22;24062;47.480;8.768;2023-07-24T06:34:21;27.70;55.60
38265;DHT22;24062;47.480;8.768;2023-07-24T06:36:49;27.60;55.50
38265;DHT22;24062;47.480;8.768;2023-07-24T06:39:16;27.60;55.60
38265;DHT22;24062;47.480;8.768;2023-07-24T06:41:43;27.60;55.60
38265;DHT22;24062;47.480;8.768;2023-07-24T06:44:10;27.50;55.60
38265;DHT22;24062;47.480;8.768;2023-07-24T06:46:36;27.50;55.70
38265;DHT22;24062;47.480;8.768;2023-07-24T06:49:03;27.50;55.70
38265;DHT22;24062;47.480;8.768;2023-07-24T06:51:30;27.50;55.80
38265;DHT22;24062;47.480;8.768;2023-07-24T06:53:58;27.50;55.80
38265;DHT22;24062;47.480;8.768;2023-07-24T06:56:25;27.40;55.80
38265;DHT22;24062;47.480;8.768;2023-07-24T06:58:52;27.30;55.80
38265;DHT22;24062;47.480;8.768;2023-07-24T07:01:19;27.40;55.90
38265;DHT22;24062;47.480;8.768;2023-07-24T07:03:46;27.40;55.90
38265;DHT22;24062;47.480;8.768;2023-07-24T07:06:13;27.30;55.90
38265;DHT22;24062;47.480;8.768;2023-07-24T07:08:40;27.30;55.90
38265;DHT22;24062;47.480;8.768;2023-07-24T07:11:09;27.30;55.90
38265;DHT22;24062;47.480;8.768;2023-07-24T07:13:36;27.30;55.90
38265;DHT22;24062;47.480;8.768;2023-07-24T07:16:03;27.40;55.90
38265;DHT22;24062;47.480;8.768;2023-07-24T07:18:30;27.40;55.90
38265;DHT22;24062;47.480;8.768;2023-07-24T07:20:57;27.40;55.90
38265;DHT22;24062;47.480;8.768;2023-07-24T07:23:23;27.40;55.90
38265;DHT22;24062;47.480;8.768;2023-07-24T07:25:51;27.40;55.90
38265;DHT22;24062;47.480;8.768;2023-07-24T07:28:19;27.40;55.90
38265;DHT22;24062;47.480;8.768;2023-07-24T07:30:46;27.30;55.80
38265;DHT22;24062;47.480;8.768;2023-07-24T07:33:13;27.30;55.80
38265;DHT22;24062;47.480;8.768;2023-07-24T07:35:40;27.40;55.90
38265;DHT22;24062;47.480;8.768;2023-07-24T07:38:07;27.30;55.80
38265;DHT22;24062;47.480;8.768;2023-07-24T07:40:37;27.40;55.90
38265;DHT22;24062;47.480;8.768;2023-07-24T07:43:04;27.30;55.80
38265;DHT22;24062;47.480;8.768;2023-07-24T07:45:32;27.40;55.90
38265;DHT22;24062;47.480;8.768;2023-07-24T07:48:00;27.40;55.90
38265;DHT22;24062;47.480;8.768;2023-07-24T07:50:26;27.30;55.80
38265;DHT22;24062;47.480;8.768;2023-07-24T07:52:53;27.40;55.90
38265;DHT22;24062;47.480;8.768;2023-07-24T07:55:20;27.30;55.80
38265;DHT22;24062;47.480;8.768;2023-07-24T07:57:47;27.30;55.80
38265;DHT22;24062;47.480;8.768;2023-07-24T08:00:15;27.30;55.80
38265;DHT22;24062;47.480;8.768;2023-07-24T08:02:43;27.40;55.80
38265;DHT22;24062;47.480;8.768;2023-07-24T08:05:11;27.40;55.70
38265;DHT22;24062;47.480;8.768;2023-07-24T08:07:38;27.40;55.70
38265;DHT22;24062;47.480;8.768;2023-07-24T08:10:05;27.40;55.60
38265;DHT22;24062;47.480;8.768;2023-07-24T08:12:33;27.50;55.70
38265;DHT22;24062;47.480;8.768;2023-07-24T08:15:00;27.50;55.70
38265;DHT22;24062;47.480;8.768;2023-07-24T08:17:26;27.50;55.60
38265;DHT22;24062;47.480;8.768;2023-07-24T08:19:55;27.50;55.60
38265;DHT22;24062;47.480;8.768;2023-07-24T08:22:22;27.50;55.50
38265;DHT22;24062;47.480;8.768;2023-07-24T08:24:49;27.60;55.50
38265;DHT22;24062;47.480;8.768;2023-07-24T08:27:17;27.60;55.40
38265;DHT22;24062;47.480;8.768;2023-07-24T08:29:44;27.70;55.30
38265;DHT22;24062;47.480;8.768;2023-07-24T08:32:11;27.70;55.30
38265;DHT22;24062;47.480;8.768;2023-07-24T08:34:38;27.70;55.20
38265;DHT22;24062;47.480;8.768;2023-07-24T08:37:06;27.80;55.10
38265;DHT22;24062;47.480;8.768;2023-07-24T08:39:33;27.90;55.10
38265;DHT22;24062;47.480;8.768;2023-07-24T08:42:08;28.00;54.90
38265;DHT22;24062;47.480;8.768;2023-07-24T08:44:35;28.00;54.70
38265;DHT22;24062;47.480;8.768;2023-07-24T08:47:04;28.10;54.60
38265;DHT22;24062;47.480;8.768;2023-07-24T08:49:32;28.20;54.60
38265;DHT22;24062;47.480;8.768;2023-07-24T08:52:01;28.30;54.50
38265;DHT22;24062;47.480;8.768;2023-07-24T08:54:31;28.30;54.40
38265;DHT22;24062;47.480;8.768;2023-07-24T08:56:59;28.40;54.30
38265;DHT22;24062;47.480;8.768;2023-07-24T08:59:27;28.50;54.20
38265;DHT22;24062;47.480;8.768;2023-07-24T09:01:55;28.60;54.10
38265;DHT22;24062;47.480;8.768;2023-07-24T09:04:22;28.60;54.00
38265;DHT22;24062;47.480;8.768;2023-07-24T09:06:50;28.70;53.90
38265;DHT22;24062;47.480;8.768;2023-07-24T09:09:17;28.80;53.80
38265;DHT22;24062;47.480;8.768;2023-07-24T09:11:50;28.80;53.70
38265;DHT22;24062;47.480;8.768;2023-07-24T09:14:21;28.90;53.70
38265;DHT22;24062;47.480;8.768;2023-07-24T09:16:48;29.00;53.60
38265;DHT22;24062;47.480;8.768;2023-07-24T09:19:18;29.00;53.50
38265;DHT22;24062;47.480;8.768;2023-07-24T09:21:45;29.10;53.40
38265;DHT22;24062;47.480;8.768;2023-07-24T09:24:13;29.20;53.30
38265;DHT22;24062;47.480;8.768;2023-07-24T09:26:49;29.20;53.20
38265;DHT22;24062;47.480;8.768;2023-07-24T09:29:17;29.10;53.20
38265;DHT22;24062;47.480;8.768;2023-07-24T09:31:44;29.10;53.30
38265;DHT22;24062;47.480;8.768;2023-07-24T09:34:15;29.10;53.40
38265;DHT22;24062;47.480;8.768;2023-07-24T09:36:42;29.10;53.30
38265;DHT22;24062;47.480;8.768;2023-07-24T09:39:09;29.10;53.30
38265;DHT22;24062;47.480;8.768;2023-07-24T09:41:37;29.10;53.30
38265;DHT22;24062;47.480;8.768;2023-07-24T09:44:06;29.00;53.30
38265;DHT22;24062;47.480;8.768;2023-07-24T09:46:33;29.00;53.40
38265;DHT22;24062;47.480;8.768;2023-07-24T09:49:00;28.90;53.40
38265;DHT22;24062;47.480;8.768;2023-07-24T09:51:29;28.90;53.50
38265;DHT22;24062;47.480;8.768;2023-07-24T09:54:04;28.80;53.60
38265;DHT22;24062;47.480;8.768;2023-07-24T09:56:33;28.80;53.70
38265;DHT22;24062;47.480;8.768;2023-07-24T09:59:01;28.80;53.70
38265;DHT22;24062;47.480;8.768;2023-07-24T10:01:31;28.80;53.80
38265;DHT22;24062;47.480;8.768;2023-07-24T10:03:59;28.80;53.80
38265;DHT22;24062;47.480;8.768;2023-07-24T10:06:27;28.70;53.80
38265;DHT22;24062;47.480;8.768;2023-07-24T10:08:56;28.70;53.80
38265;DHT22;24062;47.480;8.768;2023-07-24T10:11:23;28.70;53.80
38265;DHT22;24062;47.480;8.768;2023-07-24T10:13:51;28.70;53.90
38265;DHT22;24062;47.480;8.768;2023-07-24T10:16:19;28.60;54.00
38265;DHT22;24062;47.480;8.768;2023-07-24T10:18:48;28.60;54.00
38265;DHT22;24062;47.480;8.768;2023-07-24T10:21:15;28.60;54.10
38265;DHT22;24062;47.480;8.768;2023-07-24T10:23:44;28.50;54.10
38265;DHT22;24062;47.480;8.768;2023-07-24T10:26:12;28.50;54.10
38265;DHT22;24062;47.480;8.768;2023-07-24T10:28:40;28.60;54.10
38265;DHT22;24062;47.480;8.768;2023-07-24T10:31:18;28.70;54.00
38265;DHT22;24062;47.480;8.768;2023-07-24T10:33:45;28.80;53.90
38265;DHT22;24062;47.480;8.768;2023-07-24T10:36:17;28.80;53.80
38265;DHT22;24062;47.480;8.768;2023-07-24T10:38:46;28.90;54.20
38265;DHT22;24062;47.480;8.768;2023-07-24T10:41:13;29.00;53.60
38265;DHT22;24062;47.480;8.768;2023-07-24T10:43:41;29.00;53.50
38265;DHT22;24062;47.480;8.768;2023-07-24T10:46:09;28.90;53.60
38265;DHT22;24062;47.480;8.768;2023-07-24T10:48:36;28.80;53.60
38265;DHT22;24062;47.480;8.768;2023-07-24T10:51:06;28.70;53.80
38265;DHT22;24062;47.480;8.768;2023-07-24T10:53:36;28.60;53.90
38265;DHT22;24062;47.480;8.768;2023-07-24T10:56:04;28.60;54.00
38265;DHT22;24062;47.480;8.768;2023-07-24T10:58:31;28.60;54.00
38265;DHT22;24062;47.480;8.768;2023-07-24T11:00:58;28.50;54.00
38265;DHT22;24062;47.480;8.768;2023-07-24T11:03:26;28.50;54.10
38265;DHT22;24062;47.480;8.768;2023-07-24T11:05:54;28.50;54.10
38265;DHT22;24062;47.480;8.768;2023-07-24T11:08:21;28.50;54.20
38265;DHT22;24062;47.480;8.768;2023-07-24T11:10:51;28.40;54.20
38265;DHT22;24062;47.480;8.768;2023-07-24T11:13:19;28.40;54.30
38265;DHT22;24062;47.480;8.768;2023-07-24T11:15:48;28.40;54.40
38265;DHT22;24062;47.480;8.768;2023-07-24T11:18:15;28.30;54.40
38265;DHT22;24062;47.480;8.768;2023-07-24T11:20:48;28.30;54.50
38265;DHT22;24062;47.480;8.768;2023-07-24T11:23:15;28.30;54.60
38265;DHT22;24062;47.480;8.768;2023-07-24T11:25:43;28.30;55.10
38265;DHT22;24062;47.480;8.768;2023-07-24T11:28:13;28.40;54.40
38265;DHT22;24062;47.480;8.768;2023-07-24T11:30:40;28.60;54.30
38265;DHT22;24062;47.480;8.768;2023-07-24T11:33:09;28.80;54.10
38265;DHT22;24062;47.480;8.768;2023-07-24T11:35:37;28.80;53.90
38265;DHT22;24062;47.480;8.768;2023-07-24T11:38:05;28.90;53.80
38265;DHT22;24062;47.480;8.768;2023-07-24T11:40:33;28.90;53.70
38265;DHT22;24062;47.480;8.768;2023-07-24T11:43:00;28.90;53.70
38265;DHT22;24062;47.480;8.768;2023-07-24T11:45:28;28.90;53.80
38265;DHT22;24062;47.480;8.768;2023-07-24T11:47:55;28.80;53.80
38265;DHT22;24062;47.480;8.768;2023-07-24T11:50:23;28.80;53.90
38265;DHT22;24062;47.480;8.768;2023-07-24T11:52:51;28.80;54.00
38265;DHT22;24062;47.480;8.768;2023-07-24T11:55:19;28.80;54.00
38265;DHT22;24062;47.480;8.768;2023-07-24T11:57:57;28.80;54.00
38265;DHT22;24062;47.480;8.768;2023-07-24T12:00:24;28.70;53.90
38265;DHT22;24062;47.480;8.768;2023-07-24T12:02:53;28.80;53.90
38265;DHT22;24062;47.480;8.768;2023-07-24T12:05:20;28.90;53.80
38265;DHT22;24062;47.480;8.768;2023-07-24T12:07:47;29.00;53.80
38265;DHT22;24062;47.480;8.768;2023-07-24T12:10:25;29.00;53.70
38265;DHT22;24062;47.480;8.768;2023-07-24T12:12:53;29.00;53.60
38265;DHT22;24062;47.480;8.768;2023-07-24T12:15:20;29.10;53.60
38265;DHT22;24062;47.480;8.768;2023-07-24T12:17:47;29.10;53.60
38265;DHT22;24062;47.480;8.768;2023-07-24T12:20:15;29.10;53.50
38265;DHT22;24062;47.480;8.768;2023-07-24T12:22:42;29.10;53.50
38265;DHT22;24062;47.480;8.768;2023-07-24T12:25:09;29.20;53.50
38265;DHT22;24062;47.480;8.768;2023-07-24T12:27:36;29.30;53.50
38265;DHT22;24062;47.480;8.768;2023-07-24T12:30:06;29.30;53.30
38265;DHT22;24062;47.480;8.768;2023-07-24T12:32:33;29.40;53.30
38265;DHT22;24062;47.480;8.768;2023-07-24T12:35:00;29.40;53.20
38265;DHT22;24062;47.480;8.768;2023-07-24T12:37:28;29.40;53.30
38265;DHT22;24062;47.480;8.768;2023-07-24T12:39:55;29.30;53.40
38265;DHT22;24062;47.480;8.768;2023-07-24T12:42:22;29.20;53.50
38265;DHT22;24062;47.480;8.768;2023-07-24T12:44:50;29.20;53.60
38265;DHT22;24062;47.480;8.768;2023-07-24T12:47:17;29.20;53.60
38265;DHT22;24062;47.480;8.768;2023-07-24T12:49:43;29.30;53.60
38265;DHT22;24062;47.480;8.768;2023-07-24T12:52:11;29.30;53.60
38265;DHT22;24062;47.480;8.768;2023-07-24T12:54:39;29.30;53.50
38265;DHT22;24062;47.480;8.768;2023-07-24T12:57:06;29.40;54.20
38265;DHT22;24062;47.480;8.768;2023-07-24T12:59:33;29.40;53.50
38265;DHT22;24062;47.480;8.768;2023-07-24T13:02:00;29.40;53.50
38265;DHT22;24062;47.480;8.768;2023-07-24T13:04:27;29.40;53.60
38265;DHT22;24062;47.480;8.768;2023-07-24T13:06:54;29.40;53.50
38265;DHT22;24062;47.480;8.768;2023-07-24T13:09:21;29.50;53.50
38265;DHT22;24062;47.480;8.768;2023-07-24T13:11:50;29.60;53.50
38265;DHT22;24062;47.480;8.768;2023-07-24T13:14:19;29.70;53.40
38265;DHT22;24062;47.480;8.768;2023-07-24T13:16:46;29.70;53.30
38265;DHT22;24062;47.480;8.768;2023-07-24T13:19:13;29.70;53.30
38265;DHT22;24062;47.480;8.768;2023-07-24T13:21:40;29.70;53.30
38265;DHT22;24062;47.480;8.768;2023-07-24T13:24:08;29.60;53.30
38265;DHT22;24062;47.480;8.768;2023-07-24T13:26:35;29.60;53.40
38265;DHT22;24062;47.480;8.768;2023-07-24T13:29:04;29.60;53.40
38265;DHT22;24062;47.480;8.768;2023-07-24T13:31:31;29.60;53.40
38265;DHT22;24062;47.480;8.768;2023-07-24T13:33:58;29.60;53.40
38265;DHT22;24062;47.480;8.768;2023-07-24T13:36:25;29.70;53.40
38265;DHT22;24062;47.480;8.768;2023-07-24T13:38:52;29.70;53.40
38265;DHT22;24062;47.480;8.768;2023-07-24T13:41:19;29.70;53.50
38265;DHT22;24062;47.480;8.768;2023-07-24T13:43:46;29.60;53.40
38265;DHT22;24062;47.480;8.768;2023-07-24T13:46:14;29.60;53.40
38265;DHT22;24062;47.480;8.768;2023-07-24T13:48:41;29.60;53.40
38265;DHT22;24062;47.480;8.768;2023-07-24T13:51:08;29.60;53.40
38265;DHT22;24062;47.480;8.768;2023-07-24T13:53:35;29.60;53.50
38265;DHT22;24062;47.480;8.768;2023-07-24T13:56:02;29.60;53.50
38265;DHT22;24062;47.480;8.768;2023-07-24T13:58:29;29.60;53.50
38265;DHT22;24062;47.480;8.768;2023-07-24T14:00:56;29.50;53.50
38265;DHT22;24062;47.480;8.768;2023-07-24T14:03:24;29.60;53.60
38265;DHT22;24062;47.480;8.768;2023-07-24T14:05:55;29.50;53.60
38265;DHT22;24062;47.480;8.768;2023-07-24T14:08:22;29.50;53.60
38265;DHT22;24062;47.480;8.768;2023-07-24T14:10:49;29.50;53.60
38265;DHT22;24062;47.480;8.768;2023-07-24T14:13:16;29.50;53.60
38265;DHT22;24062;47.480;8.768;2023-07-24T14:15:43;29.60;53.70
38265;DHT22;24062;47.480;8.768;2023-07-24T14:18:10;29.50;53.60
38265;DHT22;24062;47.480;8.768;2023-07-24T14:20:38;29.60;53.70
38265;DHT22;24062;47.480;8.768;2023-07-24T14:23:06;29.50;53.60
38265;DHT22;24062;47.480;8.768;2023-07-24T14:25:33;29.60;53.60
38265;DHT22;24062;47.480;8.768;2023-07-24T14:28:00;29.60;53.60
38265;DHT22;24062;47.480;8.768;2023-07-24T14:30:28;29.60;53.50
38265;DHT22;24062;47.480;8.768;2023-07-24T14:32:55;29.60;53.60
38265;DHT22;24062;47.480;8.768;2023-07-24T14:35:22;29.70;53.60
38265;DHT22;24062;47.480;8.768;2023-07-24T14:37:50;29.70;53.60
38265;DHT22;24062;47.480;8.768;2023-07-24T14:40:18;29.70;53.40
38265;DHT22;24062;47.480;8.768;2023-07-24T14:42:44;29.80;53.40
38265;DHT22;24062;47.480;8.768;2023-07-24T14:45:11;29.70;53.40
38265;DHT22;24062;47.480;8.768;2023-07-24T14:47:38;29.70;53.40
38265;DHT22;24062;47.480;8.768;2023-07-24T14:50:06;29.70;53.50
38265;DHT22;24062;47.480;8.768;2023-07-24T14:52:33;29.60;53.60
38265;DHT22;24062;47.480;8.768;2023-07-24T14:55:01;29.50;53.60
38265;DHT22;24062;47.480;8.768;2023-07-24T14:57:28;29.50;53.70
38265;DHT22;24062;47.480;8.768;2023-07-24T14:59:55;29.40;53.80
38265;DHT22;24062;47.480;8.768;2023-07-24T15:02:22;29.30;53.90
38265;DHT22;24062;47.480;8.768;2023-07-24T15:04:49;29.30;54.00
38265;DHT22;24062;47.480;8.768;2023-07-24T15:07:16;29.20;54.10
38265;DHT22;24062;47.480;8.768;2023-07-24T15:09:43;29.40;54.20
38265;DHT22;24062;47.480;8.768;2023-07-24T15:12:11;29.60;54.40
38265;DHT22;24062;47.480;8.768;2023-07-24T15:14:38;29.80;53.50
38265;DHT22;24062;47.480;8.768;2023-07-24T15:17:05;30.00;53.90
38265;DHT22;24062;47.480;8.768;2023-07-24T15:19:32;30.00;53.20
38265;DHT22;24062;47.480;8.768;2023-07-24T15:21:59;30.10;53.20
38265;DHT22;24062;47.480;8.768;2023-07-24T15:24:26;30.20;53.00
38265;DHT22;24062;47.480;8.768;2023-07-24T15:26:53;30.20;52.90
38265;DHT22;24062;47.480;8.768;2023-07-24T15:29:21;30.20;52.80
38265;DHT22;24062;47.480;8.768;2023-07-24T15:31:48;30.20;52.80
38265;DHT22;24062;47.480;8.768;2023-07-24T15:34:15;30.10;52.90